New Haven, CT (06512)

9:57 PM EDT on August 21, 2014 (GMT -0400)
Beacon Hill/Lake Saltonstall - Branford | Change Station
CLOSE
Current Station
Personal Weather Station
Location: Branford, CT
Elevation: 20 ft
Nearby Weather Stations

Elev 20 ft 41.28 °N, 72.86 °W | Updated 30 seconds ago

Overcast
Overcast
70.0 °F
Feels Like 70.0 °F
N
0.0
Wind Variable Wind from South
Gusts 0.0 mph

Today
High -- | Low -- °F
--% Chance of Precip.
Yesterday
High -- | Low -- °F
Precip. -- in
6:06 AM 7:41 PM
Waning Crescent, 11% visible
Pressure 30.06 in
Visibility 10.0 miles
Clouds Overcast 5000 ft
Dew Point 66 °F
Humidity 88%
Rainfall 0.00 in
Snow Depth Not available.
UV 0 out of 12
Pollen 8.00 out of 12
Ozone Good
Flu Activity Not available.
METAR KHVN 220053Z 15008KT 10SM OVC050 23/17 A3006 RMK AO2 SLP178 T02280172

More Conditions Fewer Conditions

Pressure 30.06 in
Visibility 10.0 miles
Clouds Overcast 5000 ft
Dew Point 66 °F
Humidity 88%
Rainfall 0.00 in
Snow Depth Not available.
UV 0 out of 12
Pollen 8.00 out of 12
Ozone Good
Flu Activity Not available.
METAR KHVN 220053Z 15008KT 10SM OVC050 23/17 A3006 RMK AO2 SLP178 T02280172

More Conditions Fewer Conditions

10-Day Weather Forecast

Almanac

Astronomy

Aug. 21, 2014 Rise Set
Actual Time 6:06 AM EDT 7:41 PM EDT
Civil Twilight 5:37 AM EDT 8:10 PM EDT
Nautical Twilight 5:02 AM EDT 8:45 PM EDT
Astronomical Twilight 4:24 AM EDT 9:23 PM EDT
Moon 2:33 AM EDT (8/21) 5:09 PM EDT (8/21)
Length of Visible Light 14h 33m
Length of Day
13h 34m
Tomorrow will be 2m 32s shorter.
Waning Crescent, 11% of the Moon is Illuminated
Today
Waning Crescent
Aug 25
New
Sep 2
First Quarter
Sep 8
Full
Sep 15
Last Quarter

Today's Extremes

State Highs State Lows

Community

WunderPhotos

Upload Photos

1,746,105 photos uploaded!

WunderBlogs® & News

Nearby

Air Quality

  Air Quality AQ Index Pollutant
Yesterday Good
PM10
Yesterday Good
OZONE
Current Good
OZONE
Thursday Good
PM2.5
Thursday Good
OZONE
Friday Good
PM2.5
Friday Good
OZONE

Snow Depth

Station Depth Elevation
No new snow has been reported.

Earthquake Activity

City Distance Mag. Time & Date
No recent earthquake activity has been reported nearby.
Minimum magnitude displayed is 2.5.

Coastal Water Temperatures

Place Temperature
New London, CT 71.1 °F
Newport, RI 71.1 °F
Quonset Point, RI 71.1 °F
Conimicut Light, RI 73.9 °F
Providence, RI 73.9 °F

Nearby Weather Stations